Time;durP1;ratioP1;P1;durP2;ratioP2;P2;SDS_P1;SDS_P2;PMS_P1;PMS_P2;Temp;Humidity;BMP_temperature;BMP_pressure;BME280_temperature;BME280_humidity;BME280_pressure;Samples;Min_cycle;Max_cycle;Signal;HPM_P1;HPM_P2
2023/03/11 00:04:30;;;;;;;9.70;6.70;;;;;;;6.26;82.44;97054.30;217677;1261;142098;-78
2023/03/11 00:09:34;;;;;;;10.80;5.10;;;;;;;6.15;82.80;97043.77;217465;1256;141151;-73
2023/03/11 00:14:37;;;;;;;10.10;6.50;;;;;;;6.04;82.55;97030.08;217502;1261;140762;-73
2023/03/11 00:19:40;;;;;;;8.00;4.70;;;;;;;5.98;82.93;97033.48;217418;1257;141686;-73
2023/03/11 00:24:42;;;;;;;7.60;5.30;;;;;;;5.96;82.74;97026.92;217452;1259;141021;-74
2023/03/11 00:29:46;;;;;;;10.30;4.90;;;;;;;5.92;82.95;97023.55;217867;1256;140015;-78
2023/03/11 00:34:49;;;;;;;5.30;3.60;;;;;;;5.91;82.87;97021.98;217785;1262;140270;-80
2023/03/11 00:39:52;;;;;;;6.40;4.00;;;;;;;5.88;83.07;97017.89;217700;1256;139806;-77
2023/03/11 00:44:55;;;;;;;8.90;4.20;;;;;;;5.86;83.01;97011.97;217619;1260;140745;-80
2023/03/11 00:49:57;;;;;;;8.00;4.10;;;;;;;5.86;83.22;97006.52;217377;1257;140917;-74
2023/03/11 00:55:00;;;;;;;7.60;4.90;;;;;;;5.89;83.31;96998.18;218022;1260;151834;-74
2023/03/11 01:00:05;;;;;;;3.70;3.40;;;;;;;5.95;83.45;96999.50;217262;1261;141811;-72
2023/03/11 01:05:09;;;;;;;5.40;3.00;;;;;;;5.99;83.71;96993.45;218285;1261;141113;-72
2023/03/11 01:10:12;;;;;;;5.30;3.60;;;;;;;6.04;83.88;96991.36;217667;1259;140592;-70
2023/03/11 01:15:30;;;;;;;4.40;3.50;;;;;;;6.10;83.73;96990.33;217601;1256;140234;-71
2023/03/11 01:20:36;;;;;;;15.20;6.20;;;;;;;6.19;84.05;96992.48;217210;1262;139918;-72
2023/03/11 01:25:40;;;;;;;9.70;3.90;;;;;;;6.25;83.63;96988.39;217516;1257;140622;-69
2023/03/11 01:30:44;;;;;;;3.90;2.90;;;;;;;6.28;84.13;96984.72;217667;1256;140511;-70
2023/03/11 01:35:48;;;;;;;6.70;3.20;;;;;;;6.26;83.52;96989.13;218662;1257;140484;-69
2023/03/11 01:40:51;;;;;;;4.40;2.80;;;;;;;6.22;83.62;96982.48;218876;1257;140355;-70
2023/03/11 01:45:55;;;;;;;8.90;3.70;;;;;;;6.22;83.61;96980.79;217777;1259;139741;-69
2023/03/11 01:50:58;;;;;;;3.80;2.60;;;;;;;6.22;83.66;96976.61;218807;1257;142365;-70
2023/03/11 01:56:04;;;;;;;6.50;3.90;;;;;;;6.22;83.68;96974.38;217680;1260;141654;-72
2023/03/11 02:01:08;;;;;;;6.90;3.30;;;;;;;6.23;83.79;96977.81;217323;1257;141983;-70
2023/03/11 02:06:15;;;;;;;5.90;3.40;;;;;;;6.24;83.98;96974.42;217646;1257;140813;-70
2023/03/11 02:11:23;;;;;;;7.30;3.70;;;;;;;6.27;83.95;96973.52;218018;1260;140856;-70
2023/03/11 02:16:27;;;;;;;3.60;2.50;;;;;;;6.30;83.96;96973.27;218270;1257;141004;-69
2023/03/11 02:21:33;;;;;;;6.80;2.90;;;;;;;6.34;83.79;96970.40;217830;1257;139949;-71
2023/03/11 02:26:59;;;;;;;4.70;4.10;;;;;;;6.36;84.01;96962.41;218407;1262;140136;-71
2023/03/11 02:32:07;;;;;;;6.70;3.20;;;;;;;6.39;84.38;96962.33;217585;1260;139866;-70
2023/03/11 02:37:14;;;;;;;5.50;3.40;;;;;;;6.45;83.97;96963.06;217661;1260;140608;-70
2023/03/11 02:42:24;;;;;;;3.20;2.70;;;;;;;6.50;84.62;96962.08;217739;1260;141040;-70
2023/03/11 02:47:27;;;;;;;4.50;3.30;;;;;;;6.51;84.35;96959.63;218150;1258;139980;-71
2023/03/11 02:52:34;;;;;;;5.30;3.60;;;;;;;6.51;84.19;96959.90;217842;1257;140046;-70
2023/03/11 02:57:37;;;;;;;5.10;3.00;;;;;;;6.50;84.41;96957.00;217497;1257;140592;-72
2023/03/11 03:02:41;;;;;;;4.00;2.70;;;;;;;6.50;83.79;96957.73;217612;1257;140055;-71
2023/03/11 03:07:44;;;;;;;3.80;2.80;;;;;;;6.51;84.33;96959.53;217597;1256;139858;-71
2023/03/11 03:12:47;;;;;;;4.50;3.20;;;;;;;6.49;84.50;96949.23;219149;1257;139784;-72
2023/03/11 03:17:50;;;;;;;5.70;3.70;;;;;;;6.50;84.59;96950.80;218571;1259;140161;-72
2023/03/11 03:22:54;;;;;;;5.60;3.30;;;;;;;6.49;84.78;96947.74;218877;1259;140449;-72
2023/03/11 03:27:57;;;;;;;4.40;3.40;;;;;;;6.52;85.05;96951.69;217738;1259;139725;-71
2023/03/11 03:33:03;;;;;;;3.50;3.00;;;;;;;6.55;84.91;96946.11;217660;1257;140194;-70
2023/03/11 03:38:06;;;;;;;4.70;4.20;;;;;;;6.54;84.97;96946.64;217599;1257;139824;-71
2023/03/11 03:43:09;;;;;;;4.30;3.20;;;;;;;6.49;85.13;96951.45;220171;1257;141486;-72
2023/03/11 03:48:13;;;;;;;5.60;3.30;;;;;;;6.47;85.56;96951.52;219307;1257;139890;-70
2023/03/11 03:53:16;;;;;;;4.00;3.20;;;;;;;6.46;85.39;96948.81;217840;1259;139772;-70
2023/03/11 03:58:20;;;;;;;4.50;3.10;;;;;;;6.45;85.60;96950.66;217817;1260;141230;-71
2023/03/11 04:03:25;;;;;;;2.70;2.50;;;;;;;6.44;85.68;96953.75;217380;1259;141385;-69
2023/03/11 04:08:29;;;;;;;4.40;3.70;;;;;;;6.41;85.91;96955.73;217648;1257;139883;-70
2023/03/11 04:13:32;;;;;;;4.70;4.20;;;;;;;6.42;86.55;96960.61;217572;1257;141621;-70
2023/03/11 04:18:35;;;;;;;3.30;3.00;;;;;;;6.45;86.48;96963.70;217627;1259;240013;-67
2023/03/11 04:23:38;;;;;;;4.00;3.60;;;;;;;6.47;86.62;96964.37;217628;1260;139785;-67
2023/03/11 04:28:42;;;;;;;4.30;3.50;;;;;;;6.45;86.28;96966.61;217660;1257;139745;-67
2023/03/11 04:33:44;;;;;;;3.80;2.80;;;;;;;6.42;86.58;96965.89;217373;1259;139798;-69
2023/03/11 04:38:46;;;;;;;4.30;3.90;;;;;;;6.38;86.49;96968.11;217678;1258;150399;-68
2023/03/11 04:43:48;;;;;;;3.40;3.20;;;;;;;6.34;86.30;96967.75;217592;1262;140588;-69
2023/03/11 04:48:50;;;;;;;2.00;1.90;;;;;;;6.31;86.61;96974.02;217717;1258;140493;-70
2023/03/11 04:53:53;;;;;;;2.80;2.60;;;;;;;6.25;86.46;96983.36;217508;1257;139722;-70
2023/03/11 04:58:56;;;;;;;2.40;2.30;;;;;;;6.24;86.32;96983.16;217669;1257;140614;-70
2023/03/11 05:03:59;;;;;;;6.20;3.00;;;;;;;6.19;86.47;96990.05;217364;1259;141972;-70
2023/03/11 05:09:01;;;;;;;4.70;4.20;;;;;;;6.07;86.12;96994.42;217572;1258;139347;-70
2023/03/11 05:14:04;;;;;;;4.60;4.20;;;;;;;6.00;86.44;97000.11;217471;1260;139965;-69
2023/03/11 05:19:29;;;;;;;4.60;4.20;;;;;;;5.91;86.09;97001.92;218100;1260;140908;-66
2023/03/11 05:24:29;;;;;;;4.90;4.50;;;;;;;5.82;86.48;97006.34;220512;1256;140758;-68
2023/03/11 05:29:31;;;;;;;5.10;3.90;;;;;;;5.74;86.32;97007.05;220377;1257;140463;-70
2023/03/11 05:34:33;;;;;;;4.50;3.30;;;;;;;5.71;86.30;97011.25;219972;1258;140458;-68
2023/03/11 05:39:36;;;;;;;4.00;3.70;;;;;;;5.69;86.26;97019.50;217800;1260;139526;-70
2023/03/11 05:44:38;;;;;;;4.40;4.10;;;;;;;5.63;86.31;97022.05;217536;1259;140585;-70
2023/03/11 05:49:40;;;;;;;4.40;4.10;;;;;;;5.59;86.09;97027.13;217653;1260;140994;-70
2023/03/11 05:54:43;;;;;;;4.00;3.60;;;;;;;5.45;85.76;97029.45;218329;1260;140301;-71
2023/03/11 05:59:47;;;;;;;3.30;3.10;;;;;;;5.37;85.76;97041.50;217646;1258;139527;-71
2023/03/11 06:04:50;;;;;;;3.00;2.80;;;;;;;5.31;86.42;97046.48;217712;1260;142142;-71
2023/03/11 06:09:53;;;;;;;2.70;2.50;;;;;;;5.22;86.14;97052.34;217703;1261;141052;-71
2023/03/11 06:14:55;;;;;;;2.60;2.40;;;;;;;5.16;85.87;97063.61;217530;1260;141248;-72
2023/03/11 06:19:57;;;;;;;2.60;2.40;;;;;;;5.01;85.75;97073.58;217696;1260;140816;-71
2023/03/11 06:24:59;;;;;;;2.30;2.00;;;;;;;4.94;85.97;97079.42;217590;1257;139600;-72
2023/03/11 06:30:02;;;;;;;1.90;1.60;;;;;;;4.86;85.79;97086.30;217645;1260;140563;-71
2023/03/11 06:35:06;;;;;;;1.30;1.30;;;;;;;4.84;85.87;97094.70;217709;1259;139747;-70
2023/03/11 06:40:12;;;;;;;1.50;1.40;;;;;;;4.77;85.82;97104.33;217691;1256;141119;-70
2023/03/11 06:45:16;;;;;;;1.70;1.60;;;;;;;4.71;85.71;97112.23;218010;1260;142057;-71
2023/03/11 06:50:26;;;;;;;2.90;2.70;;;;;;;4.67;85.82;97112.38;217478;1260;139994;-71
2023/03/11 06:55:30;;;;;;;1.50;1.40;;;;;;;4.56;85.33;97128.14;218572;1260;140186;-70
2023/03/11 07:00:34;;;;;;;1.80;1.70;;;;;;;4.38;84.84;97139.78;218421;1257;140345;-69
2023/03/11 07:05:38;;;;;;;2.30;2.20;;;;;;;4.21;84.63;97151.69;218737;1258;139291;-71
2023/03/11 07:10:41;;;;;;;2.50;2.40;;;;;;;4.10;84.59;97162.64;217616;1257;139987;-69
2023/03/11 07:15:45;;;;;;;3.10;2.90;;;;;;;4.01;84.23;97165.30;217615;1260;139790;-69
2023/03/11 07:20:49;;;;;;;2.60;2.50;;;;;;;3.91;84.16;97175.15;219841;1256;139579;-70
2023/03/11 07:25:54;;;;;;;2.70;2.50;;;;;;;3.82;83.88;97183.63;218980;1257;142178;-69
2023/03/11 07:30:58;;;;;;;3.10;2.80;;;;;;;3.76;84.03;97189.31;218045;1260;139608;-70
2023/03/11 07:36:12;;;;;;;4.90;3.30;;;;;;;3.73;84.04;97193.67;217761;1257;141099;-69
2023/03/11 07:41:16;;;;;;;2.70;2.50;;;;;;;3.74;83.96;97196.98;220409;1257;142123;-71
2023/03/11 07:46:23;;;;;;;3.40;3.20;;;;;;;3.64;83.78;97200.09;219131;1257;139856;-69
2023/03/11 07:51:29;;;;;;;3.30;3.10;;;;;;;3.51;83.82;97203.10;218510;1256;141037;-70
2023/03/11 07:56:34;;;;;;;3.20;2.90;;;;;;;3.42;83.71;97220.17;217964;1257;140464;-68
2023/03/11 08:01:39;;;;;;;4.00;3.60;;;;;;;3.36;83.90;97228.35;218660;1256;139828;-69
2023/03/11 08:06:46;;;;;;;4.90;4.60;;;;;;;3.30;84.14;97239.67;217844;1257;139267;-71
2023/03/11 08:11:50;;;;;;;3.30;3.10;;;;;;;3.27;84.15;97246.01;217602;1260;139863;-70
2023/03/11 08:16:54;;;;;;;5.10;4.50;;;;;;;3.20;84.17;97257.68;218993;1256;139650;-71
2023/03/11 08:22:01;;;;;;;4.70;4.30;;;;;;;3.17;84.27;97263.38;217711;1257;140162;-76
2023/03/11 08:27:03;;;;;;;4.70;4.30;;;;;;;3.14;84.48;97271.08;217727;1260;140778;-72
2023/03/11 08:32:06;;;;;;;4.90;4.30;;;;;;;3.06;84.43;97280.21;218044;1257;139690;-70
2023/03/11 08:37:09;;;;;;;5.60;5.00;;;;;;;3.01;84.48;97296.76;217498;1260;139481;-69
2023/03/11 08:42:12;;;;;;;6.20;5.10;;;;;;;2.97;84.61;97309.44;217235;1256;140026;-74
2023/03/11 08:47:14;;;;;;;5.90;4.90;;;;;;;2.94;84.83;97330.67;217529;1260;140959;-68
2023/03/11 08:52:18;;;;;;;5.10;3.60;;;;;;;2.89;84.36;97352.48;217821;1257;140443;-70
2023/03/11 08:57:20;;;;;;;4.70;4.20;;;;;;;2.70;83.76;97369.98;217561;1256;139559;-70
2023/03/11 09:02:26;;;;;;;7.50;4.90;;;;;;;2.53;83.47;97385.90;218670;1258;141644;-67
2023/03/11 09:07:30;;;;;;;;;;;;;;;2.37;83.23;97401.23;217956;1257;139871;-68
2023/03/11 09:12:33;;;;;;;4.50;4.10;;;;;;;2.25;83.59;97415.03;218157;1256;126692;-71
2023/03/11 09:17:36;;;;;;;8.90;5.40;;;;;;;2.20;83.03;97430.45;217800;1257;139873;-69
2023/03/11 09:22:39;;;;;;;13.80;7.30;;;;;;;2.10;83.04;97445.58;217642;1257;140095;-68
2023/03/11 09:27:41;;;;;;;5.40;4.90;;;;;;;2.05;83.40;97457.32;220442;1256;141482;-68
2023/03/11 09:32:43;;;;;;;4.90;4.50;;;;;;;2.06;83.24;97476.47;218732;1256;140309;-67
2023/03/11 09:37:45;;;;;;;4.70;4.20;;;;;;;2.03;83.13;97495.60;220239;1256;139689;-70
2023/03/11 09:43:08;;;;;;;5.80;4.60;;;;;;;1.97;83.12;97514.36;220460;1256;140209;-70
2023/03/11 09:48:22;;;;;;;3.70;3.40;;;;;;;1.89;82.64;97531.30;218929;1256;139611;-69
2023/03/11 09:54:04;;;;;;;5.70;3.80;;;;;;;1.76;82.74;97541.63;218353;1257;139986;-71
2023/03/11 09:59:22;;;;;;;5.80;4.60;;;;;;;1.72;83.03;97561.39;217831;1257;139741;-69
2023/03/11 10:04:49;;;;;;;5.60;4.40;;;;;;;1.64;82.96;97578.36;219200;1256;141391;-69
2023/03/11 10:09:57;;;;;;;6.10;4.40;;;;;;;1.55;83.01;97594.16;218427;1256;140055;-66
2023/03/11 10:15:15;;;;;;;5.60;5.00;;;;;;;1.54;83.53;97610.58;218541;1256;139686;-69
2023/03/11 10:20:54;;;;;;;8.30;7.00;;;;;;;1.62;83.68;97628.51;217332;1256;141028;-68
2023/03/11 10:26:09;;;;;;;8.00;6.40;;;;;;;1.61;83.26;97640.26;218562;1256;140437;-69
2023/03/11 10:31:29;;;;;;;8.60;6.10;;;;;;;1.60;83.33;97652.52;218114;1256;140690;-72
2023/03/11 10:36:52;;;;;;;5.60;4.70;;;;;;;1.72;83.70;97666.04;218095;1257;139592;-69
2023/03/11 10:42:00;;;;;;;6.30;5.40;;;;;;;1.81;83.32;97680.11;217656;1256;140031;-68
2023/03/11 10:47:04;;;;;;;6.00;5.30;;;;;;;1.74;83.13;97697.60;217592;1257;141775;-75
2023/03/11 10:52:07;;;;;;;5.20;4.50;;;;;;;1.73;82.99;97713.33;217319;1260;139668;-68
2023/03/11 10:57:26;;;;;;;5.70;4.90;;;;;;;1.67;82.88;97721.19;218223;1256;140812;-64
2023/03/11 11:02:36;;;;;;;5.50;5.00;;;;;;;1.52;82.85;97743.23;218628;1258;139913;-67
2023/03/11 11:07:43;;;;;;;5.60;4.90;;;;;;;1.33;82.66;97758.98;218688;1256;139887;-68
2023/03/11 11:12:57;;;;;;;7.20;5.60;;;;;;;1.28;82.86;97771.45;218345;1257;139727;-67
2023/03/11 11:18:16;;;;;;;5.90;4.90;;;;;;;1.25;82.96;97800.23;218405;1256;140509;-66
2023/03/11 11:24:07;;;;;;;7.00;6.20;;;;;;;1.19;82.95;97811.55;219766;1256;139588;-67
2023/03/11 11:29:10;;;;;;;5.50;4.70;;;;;;;1.16;83.01;97827.46;220321;1256;139698;-69
2023/03/11 11:34:33;;;;;;;6.20;5.20;;;;;;;1.10;82.81;97837.38;220431;1256;140204;-70
2023/03/11 11:39:50;;;;;;;6.50;5.80;;;;;;;1.04;82.97;97850.98;220341;1256;140423;-70
2023/03/11 11:45:09;;;;;;;7.40;5.30;;;;;;;1.07;82.79;97855.42;219188;1256;139649;-68
2023/03/11 11:50:32;;;;;;;6.10;4.20;;;;;;;1.10;82.91;97872.27;217912;1256;139820;-68
2023/03/11 11:55:43;;;;;;;8.20;5.90;;;;;;;1.23;82.98;97886.68;217744;1259;139878;-70
2023/03/11 12:00:57;;;;;;;5.40;4.30;;;;;;;1.31;82.81;97899.20;217856;1256;139787;-69
2023/03/11 12:06:19;;;;;;;7.30;5.10;;;;;;;1.25;82.43;97918.39;217586;1257;140526;-68
2023/03/11 12:11:36;;;;;;;6.00;4.70;;;;;;;1.10;82.20;97928.82;217590;1260;141153;-68
2023/03/11 12:17:03;;;;;;;8.40;5.60;;;;;;;1.02;81.97;97939.05;217342;1258;139803;-68
2023/03/11 12:23:01;;;;;;;4.80;4.30;;;;;;;0.97;82.29;97949.02;218332;1256;140747;-69
2023/03/11 12:28:19;;;;;;;7.40;5.40;;;;;;;0.94;81.90;97961.89;217215;1256;140235;-69
2023/03/11 12:33:36;;;;;;;;;;;;;;;0.93;82.08;97981.07;217653;1257;140228;-69
2023/03/11 12:38:44;;;;;;;6.80;4.90;;;;;;;0.90;81.91;97992.42;218781;1257;127986;-68
2023/03/11 12:43:47;;;;;;;5.00;4.50;;;;;;;0.87;81.91;98010.73;217672;1259;139658;-70
2023/03/11 12:49:12;;;;;;;6.10;4.80;;;;;;;0.78;82.07;98016.60;217917;1256;140015;-66
2023/03/11 12:54:29;;;;;;;5.40;4.20;;;;;;;0.91;81.88;98028.09;217583;1257;139973;-68
2023/03/11 12:59:40;;;;;;;5.00;3.90;;;;;;;1.10;81.50;98040.15;218179;1260;139965;-67
2023/03/11 13:05:13;;;;;;;5.80;3.90;;;;;;;1.04;81.33;98057.12;218295;1257;140491;-67
2023/03/11 13:10:17;;;;;;;6.10;4.20;;;;;;;0.90;81.09;98078.09;218258;1256;140197;-68
2023/03/11 13:15:20;;;;;;;7.10;4.40;;;;;;;0.82;81.12;98099.75;217920;1256;139686;-65
2023/03/11 13:20:56;;;;;;;8.30;4.50;;;;;;;0.83;80.92;98104.95;218804;1256;140062;-67
2023/03/11 13:26:24;;;;;;;6.30;3.30;;;;;;;0.82;80.71;98121.54;220332;1257;141080;-67
2023/03/11 13:31:28;;;;;;;;;;;;;;;0.82;80.61;98134.70;220390;1256;139862;-69
2023/03/11 13:36:47;;;;;;;8.20;4.30;;;;;;;0.81;80.66;98146.52;220887;1256;126898;-70
2023/03/11 13:41:55;;;;;;;5.20;3.30;;;;;;;0.87;80.14;98154.13;218706;1256;140539;-68
2023/03/11 13:47:06;;;;;;;6.00;4.20;;;;;;;0.93;79.92;98168.59;217674;1259;140658;-69
2023/03/11 13:52:15;;;;;;;5.10;4.10;;;;;;;0.95;80.38;98176.17;219055;1256;162255;-69
2023/03/11 13:57:33;;;;;;;5.90;4.90;;;;;;;0.96;79.95;98191.50;217880;1256;139686;-68
2023/03/11 14:02:36;;;;;;;5.40;4.30;;;;;;;0.96;79.77;98201.91;217626;1259;141999;-68
2023/03/11 14:07:38;;;;;;;7.80;3.90;;;;;;;0.99;80.03;98215.91;218039;1257;140705;-67
2023/03/11 14:12:41;;;;;;;9.20;3.80;;;;;;;1.03;79.71;98232.16;218275;1257;140131;-66
2023/03/11 14:17:43;;;;;;;4.10;3.00;;;;;;;0.99;79.78;98240.33;218284;1256;140553;-67
2023/03/11 14:22:52;;;;;;;3.80;3.20;;;;;;;0.94;80.05;98247.86;217648;1256;139782;-66
2023/03/11 14:28:00;;;;;;;6.20;3.40;;;;;;;0.88;80.36;98263.92;217659;1257;142399;-66
2023/03/11 14:33:17;;;;;;;7.20;3.20;;;;;;;0.83;80.37;98276.46;217737;1257;139960;-67
2023/03/11 14:38:31;;;;;;;7.90;4.20;;;;;;;0.81;80.55;98293.61;218054;1257;140088;-67
2023/03/11 14:43:39;;;;;;;5.50;4.60;;;;;;;0.79;80.70;98292.85;218229;1257;139882;-67
2023/03/11 14:48:43;;;;;;;3.00;2.70;;;;;;;0.75;80.86;98298.64;218051;1257;140724;-66
2023/03/11 14:53:50;;;;;;;5.00;3.60;;;;;;;0.75;80.77;98311.75;217751;1257;139787;-67
2023/03/11 14:59:05;;;;;;;5.70;3.30;;;;;;;0.77;81.45;98327.60;218905;1256;140361;-67
2023/03/11 15:04:30;;;;;;;5.90;4.20;;;;;;;0.87;80.80;98331.77;219259;1256;140611;-67
2023/03/11 15:09:39;;;;;;;5.60;4.00;;;;;;;0.93;80.87;98344.45;218083;1257;140528;-65
2023/03/11 15:14:50;;;;;;;5.90;3.50;;;;;;;0.92;80.86;98366.78;219877;1259;142067;-67
2023/03/11 15:19:52;;;;;;;6.80;3.40;;;;;;;1.02;80.38;98366.34;219720;1256;140232;-68
2023/03/11 15:24:59;;;;;;;4.10;2.30;;;;;;;1.11;80.15;98372.34;220466;1256;140187;-66
2023/03/11 15:30:17;;;;;;;6.00;3.00;;;;;;;1.15;79.59;98380.92;218752;1257;140638;-68
2023/03/11 15:35:26;;;;;;;5.80;3.00;;;;;;;1.15;78.94;98389.36;220297;1256;140874;-70
2023/03/11 15:40:29;;;;;;;6.20;3.10;;;;;;;1.16;78.90;98398.41;218255;1256;140594;-68
2023/03/11 15:45:47;;;;;;;2.60;2.40;;;;;;;1.11;78.21;98400.64;218915;1256;139557;-69
2023/03/11 15:50:53;;;;;;;2.90;2.30;;;;;;;1.05;77.94;98414.55;217681;1259;140156;-69
2023/03/11 15:56:02;;;;;;;5.70;2.20;;;;;;;0.96;77.68;98425.17;217671;1257;233591;-65
2023/03/11 16:01:09;;;;;;;2.20;2.00;;;;;;;0.91;77.60;98437.27;219496;1256;139534;-67
2023/03/11 16:06:12;;;;;;;3.60;1.70;;;;;;;0.88;77.49;98447.65;218981;1256;140117;-67
2023/03/11 16:11:15;;;;;;;4.70;2.60;;;;;;;0.83;77.34;98460.16;218707;1256;139452;-67
2023/03/11 16:16:19;;;;;;;5.30;2.50;;;;;;;0.81;77.39;98476.14;218191;1256;401597;-68
2023/03/11 16:21:30;;;;;;;5.60;2.80;;;;;;;0.81;77.51;98483.16;217768;1257;140347;-67
2023/03/11 16:26:34;;;;;;;3.60;2.10;;;;;;;0.74;77.25;98495.84;217678;1259;139824;-66
2023/03/11 16:31:36;;;;;;;4.00;2.10;;;;;;;0.67;77.22;98512.68;218153;1257;140042;-67
2023/03/11 16:36:39;;;;;;;4.50;2.50;;;;;;;0.60;77.21;98528.19;217907;1256;139346;-65
2023/03/11 16:41:43;;;;;;;3.30;2.50;;;;;;;0.56;76.56;98537.38;218118;1257;139632;-67
2023/03/11 16:46:45;;;;;;;2.30;2.10;;;;;;;0.52;77.02;98545.89;218726;1259;138909;-67
2023/03/11 16:51:47;;;;;;;3.90;1.90;;;;;;;0.47;76.64;98554.14;219599;1257;139262;-67
2023/03/11 16:56:49;;;;;;;3.40;2.00;;;;;;;0.46;76.66;98568.86;218293;1257;139732;-67
2023/03/11 17:01:52;;;;;;;4.80;2.70;;;;;;;0.42;76.65;98581.63;218072;1257;139808;-67
2023/03/11 17:06:55;;;;;;;3.50;2.30;;;;;;;0.32;76.32;98594.47;218948;1257;139162;-67
2023/03/11 17:12:01;;;;;;;2.40;2.00;;;;;;;0.24;76.35;98606.47;217582;1256;139951;-66
2023/03/11 17:17:04;;;;;;;2.60;1.80;;;;;;;0.27;76.20;98618.50;219524;1257;139945;-67
2023/03/11 17:22:08;;;;;;;5.30;2.40;;;;;;;0.29;76.61;98628.02;218914;1255;138965;-66
2023/03/11 17:27:11;;;;;;;9.30;3.30;;;;;;;0.28;76.50;98630.84;219260;1256;138737;-68
2023/03/11 17:32:15;;;;;;;2.80;2.10;;;;;;;0.29;76.32;98639.80;220324;1257;140129;-67
2023/03/11 17:37:19;;;;;;;4.70;2.30;;;;;;;0.31;75.83;98645.64;220503;1256;141417;-67
2023/03/11 17:42:23;;;;;;;5.50;3.00;;;;;;;0.26;75.50;98655.55;220363;1257;140264;-68
2023/03/11 17:47:27;;;;;;;3.40;2.40;;;;;;;0.21;75.43;98663.91;218291;1256;139131;-66
2023/03/11 17:52:31;;;;;;;5.10;2.80;;;;;;;0.10;75.50;98672.59;219083;1257;140493;-68
2023/03/11 17:57:34;;;;;;;2.90;2.10;;;;;;;0.05;75.84;98685.66;219782;1256;140298;-67
2023/03/11 18:02:50;;;;;;;5.20;3.40;;;;;;;-0.04;75.62;98700.50;219216;1257;139271;-66
2023/03/11 18:07:54;;;;;;;5.50;3.00;;;;;;;-0.14;75.53;98708.85;218809;1257;141329;-64
2023/03/11 18:13:04;;;;;;;7.20;3.90;;;;;;;-0.21;75.62;98718.95;218704;1257;140405;-68
2023/03/11 18:18:21;;;;;;;7.50;4.10;;;;;;;-0.23;75.71;98731.98;217640;1259;141616;-65
2023/03/11 18:23:42;;;;;;;9.10;4.70;;;;;;;-0.26;75.63;98737.91;218015;1257;139587;-67
2023/03/11 18:28:55;;;;;;;14.10;7.00;;;;;;;-0.28;75.95;98743.38;217789;1257;139932;-66
2023/03/11 18:34:12;;;;;;;9.70;5.10;;;;;;;-0.36;76.06;98751.71;218690;1257;139139;-66
2023/03/11 18:39:18;;;;;;;13.20;5.70;;;;;;;-0.44;76.23;98757.36;217734;1259;139376;-66
2023/03/11 18:44:23;;;;;;;12.60;6.70;;;;;;;-0.49;76.26;98763.91;217797;1257;141358;-66
2023/03/11 18:49:28;;;;;;;7.80;6.00;;;;;;;-0.57;76.26;98772.20;217999;1257;140664;-66
2023/03/11 18:54:32;;;;;;;7.50;3.40;;;;;;;-0.64;76.54;98781.84;217793;1257;139233;-67
2023/03/11 18:59:38;;;;;;;10.90;6.10;;;;;;;-0.68;76.66;98788.06;217953;1257;140533;-65
2023/03/11 19:04:43;;;;;;;13.50;8.20;;;;;;;-0.65;76.61;98793.70;217918;1260;139879;-66
2023/03/11 19:09:48;;;;;;;13.90;6.70;;;;;;;-0.64;76.90;98797.61;219442;1260;140197;-67
2023/03/11 19:14:53;;;;;;;11.80;5.90;;;;;;;-0.65;76.83;98806.98;218002;1257;140170;-66
2023/03/11 19:19:59;;;;;;;9.90;5.00;;;;;;;-0.65;77.22;98812.02;219740;1257;139925;-66
2023/03/11 19:25:06;;;;;;;8.60;4.40;;;;;;;-0.63;77.17;98815.45;218972;1256;140263;-67
2023/03/11 19:30:12;;;;;;;11.00;5.40;;;;;;;-0.56;77.08;98824.61;220215;1256;139909;-67
2023/03/11 19:35:19;;;;;;;6.00;4.80;;;;;;;-0.45;77.42;98830.94;218737;1257;140385;-67
2023/03/11 19:40:28;;;;;;;7.30;4.90;;;;;;;-0.40;77.57;98837.84;220279;1256;152133;-67
2023/03/11 19:45:34;;;;;;;10.30;5.00;;;;;;;-0.37;77.13;98840.25;219877;1257;139301;-67
2023/03/11 19:50:39;;;;;;;8.10;4.50;;;;;;;-0.30;77.30;98847.15;220515;1255;140224;-66
2023/03/11 19:55:47;;;;;;;7.80;4.00;;;;;;;-0.19;77.33;98859.58;219286;1257;139675;-67
2023/03/11 20:00:51;;;;;;;7.70;5.60;;;;;;;-0.16;77.39;98864.26;219765;1256;139290;-67
2023/03/11 20:05:58;;;;;;;6.50;3.90;;;;;;;-0.14;77.34;98868.02;217893;1259;139413;-67
2023/03/11 20:11:06;;;;;;;9.00;5.10;;;;;;;-0.12;77.14;98874.33;218806;1257;140275;-65
2023/03/11 20:16:13;;;;;;;9.60;4.40;;;;;;;-0.06;77.34;98882.09;217989;1259;139960;-66
2023/03/11 20:21:21;;;;;;;12.40;6.60;;;;;;;-0.07;77.49;98890.10;217829;1257;141436;-67
2023/03/11 20:26:26;;;;;;;16.40;7.70;;;;;;;-0.08;77.87;98893.18;218506;1257;139798;-67
2023/03/11 20:31:32;;;;;;;15.20;8.90;;;;;;;-0.09;77.65;98901.48;218659;1257;139704;-66
2023/03/11 20:36:41;;;;;;;11.30;6.60;;;;;;;-0.06;77.79;98900.71;217604;1259;140040;-66
2023/03/11 20:41:47;;;;;;;12.40;6.10;;;;;;;-0.04;77.82;98904.36;217832;1257;139919;-65
2023/03/11 20:46:54;;;;;;;9.70;5.30;;;;;;;-0.03;78.11;98905.14;218008;1259;140408;-67
2023/03/11 20:52:01;;;;;;;6.70;5.10;;;;;;;-0.04;77.99;98910.65;218430;1257;140951;-66
2023/03/11 20:57:07;;;;;;;8.10;5.00;;;;;;;-0.03;78.09;98909.36;217821;1257;141488;-67
2023/03/11 21:02:14;;;;;;;6.40;5.50;;;;;;;-0.06;78.19;98917.52;218417;1257;139495;-67
2023/03/11 21:07:21;;;;;;;10.10;6.20;;;;;;;-0.08;78.24;98919.39;219078;1257;140420;-67
2023/03/11 21:12:29;;;;;;;9.30;5.00;;;;;;;-0.05;77.87;98923.38;220502;1256;141016;-72
2023/03/11 21:17:34;;;;;;;13.30;7.90;;;;;;;-0.05;78.04;98921.80;218822;1260;139340;-70
2023/03/11 21:22:38;;;;;;;75.70;41.70;;;;;;;-0.07;77.83;98925.93;220289;1257;141855;-71
2023/03/11 21:27:42;;;;;;;17.20;8.30;;;;;;;-0.09;77.82;98932.80;220463;1257;140194;-68
2023/03/11 21:32:46;;;;;;;13.20;8.50;;;;;;;-0.08;77.65;98930.03;220313;1257;140917;-70
2023/03/11 21:37:50;;;;;;;23.30;12.50;;;;;;;-0.14;77.62;98935.08;220341;1257;139888;-71
2023/03/11 21:42:53;;;;;;;14.60;12.30;;;;;;;-0.22;77.37;98936.76;218239;1256;141503;-70
2023/03/11 21:47:57;;;;;;;12.10;7.60;;;;;;;-0.24;77.87;98940.07;218422;1260;139639;-72
2023/03/11 21:53:01;;;;;;;12.80;9.10;;;;;;;-0.26;77.68;98942.55;218870;1256;140742;-70
2023/03/11 21:58:05;;;;;;;7.90;6.00;;;;;;;-0.33;77.86;98945.86;218036;1260;139611;-70
2023/03/11 22:03:09;;;;;;;14.80;7.50;;;;;;;-0.37;77.93;98950.66;218033;1259;139135;-70
2023/03/11 22:08:13;;;;;;;8.80;6.40;;;;;;;-0.37;77.73;98951.35;218749;1257;141224;-68
2023/03/11 22:13:17;;;;;;;12.30;5.90;;;;;;;-0.43;77.87;98953.45;217794;1262;139305;-67
2023/03/11 22:18:20;;;;;;;8.00;6.30;;;;;;;-0.50;77.72;98946.47;218113;1260;140219;-66
2023/03/11 22:23:24;;;;;;;10.40;6.70;;;;;;;-0.62;77.63;98950.16;217815;1260;235553;-70
2023/03/11 22:28:27;;;;;;;9.80;7.30;;;;;;;-0.69;77.69;98955.41;218406;1260;141294;-67
2023/03/11 22:33:29;;;;;;;8.10;6.70;;;;;;;-0.75;77.63;98956.63;218179;1260;140073;-68
2023/03/11 22:38:33;;;;;;;8.90;5.60;;;;;;;-0.83;78.00;98955.83;218109;1261;140322;-66
2023/03/11 22:43:37;;;;;;;9.80;6.30;;;;;;;-0.89;78.13;98952.71;219257;1260;139466;-70
2023/03/11 22:48:41;;;;;;;13.00;7.90;;;;;;;-0.91;78.32;98951.94;219148;1258;140743;-67
2023/03/11 22:53:44;;;;;;;12.20;7.90;;;;;;;-0.93;78.30;98955.09;218921;1256;141333;-67
2023/03/11 22:58:47;;;;;;;11.40;7.70;;;;;;;-0.98;78.53;98959.86;218335;1262;140234;-65
2023/03/11 23:03:50;;;;;;;12.60;9.00;;;;;;;-1.04;78.74;98960.73;218421;1257;139490;-70
2023/03/11 23:08:53;;;;;;;15.10;7.90;;;;;;;-1.06;78.79;98963.52;218410;1257;140423;-65
2023/03/11 23:13:56;;;;;;;12.40;7.50;;;;;;;-1.05;78.76;98962.08;218766;1260;151536;-66
2023/03/11 23:19:00;;;;;;;9.40;5.80;;;;;;;-1.08;78.86;98962.08;218404;1260;140176;-67
2023/03/11 23:24:04;;;;;;;14.50;6.80;;;;;;;-1.14;79.13;98958.04;219929;1257;140240;-86
2023/03/11 23:29:08;;;;;;;12.30;7.20;;;;;;;-1.14;79.07;98953.50;217473;1257;141848;-78
2023/03/11 23:34:11;;;;;;;13.70;8.00;;;;;;;-1.16;79.03;98960.55;219705;1258;140121;-67
2023/03/11 23:39:14;;;;;;;13.90;7.60;;;;;;;-1.19;79.30;98962.10;219210;1257;139973;-68
2023/03/11 23:44:17;;;;;;;18.40;7.50;;;;;;;-1.23;79.08;98962.98;218907;1259;159393;-69